sensor_id;sensor_type;location;lat;lon;timestamp;temperature;humidity
360;DHT22;168;48.872;9.226;2023-03-31T00:00:09;13.40;89.10
360;DHT22;168;48.872;9.226;2023-03-31T00:02:37;13.40;88.80
360;DHT22;168;48.872;9.226;2023-03-31T00:05:07;13.40;88.70
360;DHT22;168;48.872;9.226;2023-03-31T00:07:36;13.40;88.70
360;DHT22;168;48.872;9.226;2023-03-31T00:10:04;13.50;88.50
360;DHT22;168;48.872;9.226;2023-03-31T00:12:32;13.40;88.40
360;DHT22;168;48.872;9.226;2023-03-31T00:15:00;13.50;88.30
360;DHT22;168;48.872;9.226;2023-03-31T00:17:27;13.40;88.30
360;DHT22;168;48.872;9.226;2023-03-31T00:19:58;13.40;88.70
360;DHT22;168;48.872;9.226;2023-03-31T00:22:30;13.40;88.70
360;DHT22;168;48.872;9.226;2023-03-31T00:24:59;13.40;88.80
360;DHT22;168;48.872;9.226;2023-03-31T00:27:26;13.40;88.60
360;DHT22;168;48.872;9.226;2023-03-31T00:29:54;13.40;88.40
360;DHT22;168;48.872;9.226;2023-03-31T00:32:21;13.40;88.60
360;DHT22;168;48.872;9.226;2023-03-31T00:34:48;13.30;88.80
360;DHT22;168;48.872;9.226;2023-03-31T00:37:16;13.40;88.60
360;DHT22;168;48.872;9.226;2023-03-31T00:39:43;13.40;88.90
360;DHT22;168;48.872;9.226;2023-03-31T00:42:12;13.30;88.90
360;DHT22;168;48.872;9.226;2023-03-31T00:45:21;13.40;88.70
360;DHT22;168;48.872;9.226;2023-03-31T00:47:53;13.40;88.70
360;DHT22;168;48.872;9.226;2023-03-31T00:50:23;13.40;88.60
360;DHT22;168;48.872;9.226;2023-03-31T00:52:54;13.50;88.60
360;DHT22;168;48.872;9.226;2023-03-31T00:55:26;13.40;88.60
360;DHT22;168;48.872;9.226;2023-03-31T00:57:56;13.40;88.70
360;DHT22;168;48.872;9.226;2023-03-31T01:00:27;13.40;88.70
360;DHT22;168;48.872;9.226;2023-03-31T01:02:58;13.40;88.50
360;DHT22;168;48.872;9.226;2023-03-31T01:05:31;13.40;88.20
360;DHT22;168;48.872;9.226;2023-03-31T01:07:59;13.50;88.30
360;DHT22;168;48.872;9.226;2023-03-31T01:10:28;13.40;88.30
360;DHT22;168;48.872;9.226;2023-03-31T01:13:05;13.50;88.20
360;DHT22;168;48.872;9.226;2023-03-31T01:15:32;13.40;88.60
360;DHT22;168;48.872;9.226;2023-03-31T01:17:59;13.40;89.40
360;DHT22;168;48.872;9.226;2023-03-31T01:20:34;13.40;89.30
360;DHT22;168;48.872;9.226;2023-03-31T01:29:11;13.50;87.60
360;DHT22;168;48.872;9.226;2023-03-31T01:32:05;13.40;88.30
360;DHT22;168;48.872;9.226;2023-03-31T01:35:09;13.40;88.50
360;DHT22;168;48.872;9.226;2023-03-31T01:41:03;13.30;89.90
360;DHT22;168;48.872;9.226;2023-03-31T01:43:38;13.40;90.10
360;DHT22;168;48.872;9.226;2023-03-31T01:46:12;13.40;89.50
360;DHT22;168;48.872;9.226;2023-03-31T01:48:47;13.60;87.60
360;DHT22;168;48.872;9.226;2023-03-31T01:51:27;13.60;86.70
360;DHT22;168;48.872;9.226;2023-03-31T01:54:04;13.60;86.40
360;DHT22;168;48.872;9.226;2023-03-31T01:56:37;13.50;85.90
360;DHT22;168;48.872;9.226;2023-03-31T01:59:10;13.60;85.90
360;DHT22;168;48.872;9.226;2023-03-31T02:01:44;13.60;85.40
360;DHT22;168;48.872;9.226;2023-03-31T02:04:16;13.60;85.70
360;DHT22;168;48.872;9.226;2023-03-31T02:06:49;13.60;84.20
360;DHT22;168;48.872;9.226;2023-03-31T02:09:25;13.50;82.60
360;DHT22;168;48.872;9.226;2023-03-31T02:11:55;13.50;82.70
360;DHT22;168;48.872;9.226;2023-03-31T02:14:27;13.50;81.80
360;DHT22;168;48.872;9.226;2023-03-31T02:16:57;13.50;82.40
360;DHT22;168;48.872;9.226;2023-03-31T02:19:30;13.60;81.80
360;DHT22;168;48.872;9.226;2023-03-31T02:22:02;13.60;82.00
360;DHT22;168;48.872;9.226;2023-03-31T02:24:33;13.60;82.60
360;DHT22;168;48.872;9.226;2023-03-31T02:27:06;13.60;83.20
360;DHT22;168;48.872;9.226;2023-03-31T02:29:35;13.50;84.80
360;DHT22;168;48.872;9.226;2023-03-31T02:32:08;13.40;85.70
360;DHT22;168;48.872;9.226;2023-03-31T02:34:38;13.40;86.50
360;DHT22;168;48.872;9.226;2023-03-31T02:37:06;13.40;87.80
360;DHT22;168;48.872;9.226;2023-03-31T02:39:35;13.30;88.60
360;DHT22;168;48.872;9.226;2023-03-31T02:42:06;13.40;89.10
360;DHT22;168;48.872;9.226;2023-03-31T02:44:34;13.40;89.30
360;DHT22;168;48.872;9.226;2023-03-31T02:47:03;13.40;89.80
360;DHT22;168;48.872;9.226;2023-03-31T02:49:33;13.40;90.10
360;DHT22;168;48.872;9.226;2023-03-31T02:55:15;13.30;91.00
360;DHT22;168;48.872;9.226;2023-03-31T02:58:06;13.40;90.70
360;DHT22;168;48.872;9.226;2023-03-31T03:00:48;13.40;90.70
360;DHT22;168;48.872;9.226;2023-03-31T03:03:28;13.40;90.80
360;DHT22;168;48.872;9.226;2023-03-31T03:06:05;13.50;90.50
360;DHT22;168;48.872;9.226;2023-03-31T03:08:51;13.40;91.00
360;DHT22;168;48.872;9.226;2023-03-31T03:11:28;13.30;91.50
360;DHT22;168;48.872;9.226;2023-03-31T03:14:04;13.30;92.10
360;DHT22;168;48.872;9.226;2023-03-31T03:16:37;13.30;92.40
360;DHT22;168;48.872;9.226;2023-03-31T03:19:09;13.30;92.50
360;DHT22;168;48.872;9.226;2023-03-31T03:21:36;13.40;92.80
360;DHT22;168;48.872;9.226;2023-03-31T03:24:06;13.40;92.40
360;DHT22;168;48.872;9.226;2023-03-31T03:26:34;13.30;92.60
360;DHT22;168;48.872;9.226;2023-03-31T03:29:03;13.30;92.70
360;DHT22;168;48.872;9.226;2023-03-31T03:31:30;13.30;92.90
360;DHT22;168;48.872;9.226;2023-03-31T03:33:58;13.30;92.40
360;DHT22;168;48.872;9.226;2023-03-31T03:36:26;13.30;92.20
360;DHT22;168;48.872;9.226;2023-03-31T03:38:53;13.30;92.20
360;DHT22;168;48.872;9.226;2023-03-31T03:41:20;13.30;92.30
360;DHT22;168;48.872;9.226;2023-03-31T03:43:48;13.20;92.70
360;DHT22;168;48.872;9.226;2023-03-31T03:46:16;13.10;92.70
360;DHT22;168;48.872;9.226;2023-03-31T03:48:44;13.00;92.90
360;DHT22;168;48.872;9.226;2023-03-31T03:51:11;13.00;92.70
360;DHT22;168;48.872;9.226;2023-03-31T03:53:38;12.90;93.00
360;DHT22;168;48.872;9.226;2023-03-31T03:56:06;12.90;93.10
360;DHT22;168;48.872;9.226;2023-03-31T03:58:33;13.00;93.00
360;DHT22;168;48.872;9.226;2023-03-31T04:01:01;13.00;93.10
360;DHT22;168;48.872;9.226;2023-03-31T04:03:30;13.00;93.00
360;DHT22;168;48.872;9.226;2023-03-31T04:05:57;12.90;93.20
360;DHT22;168;48.872;9.226;2023-03-31T04:08:25;12.80;93.80
360;DHT22;168;48.872;9.226;2023-03-31T04:10:52;12.70;94.30
360;DHT22;168;48.872;9.226;2023-03-31T04:13:20;12.80;94.00
360;DHT22;168;48.872;9.226;2023-03-31T04:15:47;12.80;94.10
360;DHT22;168;48.872;9.226;2023-03-31T04:18:15;12.70;94.20
360;DHT22;168;48.872;9.226;2023-03-31T04:20:49;12.70;94.30
360;DHT22;168;48.872;9.226;2023-03-31T04:23:20;12.70;94.10
360;DHT22;168;48.872;9.226;2023-03-31T04:25:49;12.50;94.30
360;DHT22;168;48.872;9.226;2023-03-31T04:28:17;12.50;94.50
360;DHT22;168;48.872;9.226;2023-03-31T04:30:45;12.40;94.80
360;DHT22;168;48.872;9.226;2023-03-31T04:33:12;12.30;95.20
360;DHT22;168;48.872;9.226;2023-03-31T04:35:42;12.30;95.20
360;DHT22;168;48.872;9.226;2023-03-31T04:38:16;12.10;95.40
360;DHT22;168;48.872;9.226;2023-03-31T04:40:46;12.10;95.70
360;DHT22;168;48.872;9.226;2023-03-31T04:43:14;12.10;95.60
360;DHT22;168;48.872;9.226;2023-03-31T04:45:42;12.20;95.60
360;DHT22;168;48.872;9.226;2023-03-31T04:48:10;12.20;95.60
360;DHT22;168;48.872;9.226;2023-03-31T04:50:38;12.20;95.50
360;DHT22;168;48.872;9.226;2023-03-31T04:53:05;12.30;95.40
360;DHT22;168;48.872;9.226;2023-03-31T04:55:34;12.30;95.60
360;DHT22;168;48.872;9.226;2023-03-31T04:58:01;12.30;95.30
360;DHT22;168;48.872;9.226;2023-03-31T05:00:29;12.30;95.60
360;DHT22;168;48.872;9.226;2023-03-31T05:02:56;12.30;95.60
360;DHT22;168;48.872;9.226;2023-03-31T05:05:25;12.30;95.30
360;DHT22;168;48.872;9.226;2023-03-31T05:07:52;12.30;95.40
360;DHT22;168;48.872;9.226;2023-03-31T05:10:21;12.40;95.40
360;DHT22;168;48.872;9.226;2023-03-31T05:12:50;12.40;95.60
360;DHT22;168;48.872;9.226;2023-03-31T05:15:17;12.30;95.60
360;DHT22;168;48.872;9.226;2023-03-31T05:17:45;12.30;95.60
360;DHT22;168;48.872;9.226;2023-03-31T05:20:12;12.30;95.70
360;DHT22;168;48.872;9.226;2023-03-31T05:22:40;12.30;95.80
360;DHT22;168;48.872;9.226;2023-03-31T05:25:09;12.40;95.80
360;DHT22;168;48.872;9.226;2023-03-31T05:27:36;12.30;95.80
360;DHT22;168;48.872;9.226;2023-03-31T05:30:09;12.30;95.80
360;DHT22;168;48.872;9.226;2023-03-31T05:32:36;12.30;95.80
360;DHT22;168;48.872;9.226;2023-03-31T05:35:09;12.30;95.60
360;DHT22;168;48.872;9.226;2023-03-31T05:37:38;12.30;95.20
360;DHT22;168;48.872;9.226;2023-03-31T05:40:07;12.20;94.50
360;DHT22;168;48.872;9.226;2023-03-31T05:42:35;12.00;94.00
360;DHT22;168;48.872;9.226;2023-03-31T05:45:06;11.90;92.60
360;DHT22;168;48.872;9.226;2023-03-31T05:47:34;11.80;92.10
360;DHT22;168;48.872;9.226;2023-03-31T05:50:01;11.70;90.90
360;DHT22;168;48.872;9.226;2023-03-31T05:52:32;11.70;91.90
360;DHT22;168;48.872;9.226;2023-03-31T05:54:59;11.60;91.30
360;DHT22;168;48.872;9.226;2023-03-31T05:57:27;11.70;90.10
360;DHT22;168;48.872;9.226;2023-03-31T05:59:55;11.70;91.10
360;DHT22;168;48.872;9.226;2023-03-31T06:02:24;11.70;91.20
360;DHT22;168;48.872;9.226;2023-03-31T06:04:51;11.60;90.60
360;DHT22;168;48.872;9.226;2023-03-31T06:07:37;11.50;89.30
360;DHT22;168;48.872;9.226;2023-03-31T06:10:10;11.40;87.40
360;DHT22;168;48.872;9.226;2023-03-31T06:12:51;11.40;86.10
360;DHT22;168;48.872;9.226;2023-03-31T06:15:19;11.40;85.30
360;DHT22;168;48.872;9.226;2023-03-31T06:17:50;11.40;84.60
360;DHT22;168;48.872;9.226;2023-03-31T06:20:18;11.40;84.40
360;DHT22;168;48.872;9.226;2023-03-31T06:22:46;11.40;84.00
360;DHT22;168;48.872;9.226;2023-03-31T06:25:18;11.50;83.90
360;DHT22;168;48.872;9.226;2023-03-31T06:27:46;11.50;83.80
360;DHT22;168;48.872;9.226;2023-03-31T06:30:14;11.60;83.70
360;DHT22;168;48.872;9.226;2023-03-31T06:32:42;11.70;84.10
360;DHT22;168;48.872;9.226;2023-03-31T06:35:11;11.70;85.10
360;DHT22;168;48.872;9.226;2023-03-31T06:37:38;11.80;86.40
360;DHT22;168;48.872;9.226;2023-03-31T06:40:08;11.80;87.20
360;DHT22;168;48.872;9.226;2023-03-31T06:42:37;11.90;88.50
360;DHT22;168;48.872;9.226;2023-03-31T06:45:05;11.90;89.20
360;DHT22;168;48.872;9.226;2023-03-31T06:47:32;11.90;90.00
360;DHT22;168;48.872;9.226;2023-03-31T06:50:03;11.90;89.30
360;DHT22;168;48.872;9.226;2023-03-31T06:52:32;11.90;89.20
360;DHT22;168;48.872;9.226;2023-03-31T06:55:00;11.90;91.40
360;DHT22;168;48.872;9.226;2023-03-31T06:57:28;11.80;90.50
360;DHT22;168;48.872;9.226;2023-03-31T06:59:58;11.90;90.30
360;DHT22;168;48.872;9.226;2023-03-31T07:02:26;11.80;90.50
360;DHT22;168;48.872;9.226;2023-03-31T07:04:53;11.80;90.80
360;DHT22;168;48.872;9.226;2023-03-31T07:07:21;11.80;90.60
360;DHT22;168;48.872;9.226;2023-03-31T07:09:49;11.70;90.40
360;DHT22;168;48.872;9.226;2023-03-31T07:12:17;11.70;90.10
360;DHT22;168;48.872;9.226;2023-03-31T07:14:45;11.60;89.80
360;DHT22;168;48.872;9.226;2023-03-31T07:17:13;11.60;88.80
360;DHT22;168;48.872;9.226;2023-03-31T07:19:42;11.50;87.70
360;DHT22;168;48.872;9.226;2023-03-31T07:22:16;11.50;86.70
360;DHT22;168;48.872;9.226;2023-03-31T07:24:44;11.50;86.60
360;DHT22;168;48.872;9.226;2023-03-31T07:27:13;11.60;86.50
360;DHT22;168;48.872;9.226;2023-03-31T07:29:40;11.60;87.80
360;DHT22;168;48.872;9.226;2023-03-31T07:32:08;11.60;88.70
360;DHT22;168;48.872;9.226;2023-03-31T07:34:35;11.70;89.10
360;DHT22;168;48.872;9.226;2023-03-31T07:37:04;11.70;89.40
360;DHT22;168;48.872;9.226;2023-03-31T07:39:31;11.80;89.40
360;DHT22;168;48.872;9.226;2023-03-31T07:41:58;11.80;91.10
360;DHT22;168;48.872;9.226;2023-03-31T07:44:27;11.80;91.60
360;DHT22;168;48.872;9.226;2023-03-31T07:46:55;11.90;93.00
360;DHT22;168;48.872;9.226;2023-03-31T07:49:23;11.90;93.80
360;DHT22;168;48.872;9.226;2023-03-31T07:51:50;11.80;94.00
360;DHT22;168;48.872;9.226;2023-03-31T07:54:18;11.90;93.90
360;DHT22;168;48.872;9.226;2023-03-31T07:56:45;12.00;94.30
360;DHT22;168;48.872;9.226;2023-03-31T07:59:13;12.10;94.40
360;DHT22;168;48.872;9.226;2023-03-31T08:01:42;12.30;95.60
360;DHT22;168;48.872;9.226;2023-03-31T08:04:10;12.40;95.70
360;DHT22;168;48.872;9.226;2023-03-31T08:06:38;12.50;95.80
360;DHT22;168;48.872;9.226;2023-03-31T08:09:06;12.60;95.60
360;DHT22;168;48.872;9.226;2023-03-31T08:11:33;12.60;95.80
360;DHT22;168;48.872;9.226;2023-03-31T08:14:00;12.80;95.90
360;DHT22;168;48.872;9.226;2023-03-31T08:16:28;12.90;95.30
360;DHT22;168;48.872;9.226;2023-03-31T08:18:57;13.10;95.10
360;DHT22;168;48.872;9.226;2023-03-31T08:21:24;13.20;94.80
360;DHT22;168;48.872;9.226;2023-03-31T08:23:53;13.30;94.40
360;DHT22;168;48.872;9.226;2023-03-31T08:26:21;13.40;94.70
360;DHT22;168;48.872;9.226;2023-03-31T08:28:49;13.40;94.50
360;DHT22;168;48.872;9.226;2023-03-31T08:31:21;13.50;94.10
360;DHT22;168;48.872;9.226;2023-03-31T08:33:50;13.70;93.90
360;DHT22;168;48.872;9.226;2023-03-31T08:36:19;13.80;93.70
360;DHT22;168;48.872;9.226;2023-03-31T08:38:46;13.80;93.50
360;DHT22;168;48.872;9.226;2023-03-31T08:41:32;13.90;93.20
360;DHT22;168;48.872;9.226;2023-03-31T08:44:05;13.90;93.60
360;DHT22;168;48.872;9.226;2023-03-31T08:46:34;14.10;93.40
360;DHT22;168;48.872;9.226;2023-03-31T08:49:03;14.20;92.30
360;DHT22;168;48.872;9.226;2023-03-31T08:51:35;14.30;92.00
360;DHT22;168;48.872;9.226;2023-03-31T08:54:05;14.40;91.10
360;DHT22;168;48.872;9.226;2023-03-31T08:56:36;14.40;91.30
360;DHT22;168;48.872;9.226;2023-03-31T08:59:25;14.50;91.00
360;DHT22;168;48.872;9.226;2023-03-31T09:01:58;14.50;90.10
360;DHT22;168;48.872;9.226;2023-03-31T09:07:39;14.60;90.70
360;DHT22;168;48.872;9.226;2023-03-31T09:10:30;14.80;90.40
360;DHT22;168;48.872;9.226;2023-03-31T09:13:09;15.10;90.00
360;DHT22;168;48.872;9.226;2023-03-31T09:15:47;15.40;90.00
360;DHT22;168;48.872;9.226;2023-03-31T09:18:18;15.50;84.60
360;DHT22;168;48.872;9.226;2023-03-31T09:20:55;15.40;84.70
360;DHT22;168;48.872;9.226;2023-03-31T09:23:28;15.40;86.30
360;DHT22;168;48.872;9.226;2023-03-31T09:25:57;15.50;84.00
360;DHT22;168;48.872;9.226;2023-03-31T09:28:35;15.50;83.30
360;DHT22;168;48.872;9.226;2023-03-31T09:31:11;15.60;82.60
360;DHT22;168;48.872;9.226;2023-03-31T09:33:43;15.60;81.40
360;DHT22;168;48.872;9.226;2023-03-31T09:36:15;15.60;81.70
360;DHT22;168;48.872;9.226;2023-03-31T09:38:50;15.80;81.60
360;DHT22;168;48.872;9.226;2023-03-31T09:41:19;16.10;82.40
360;DHT22;168;48.872;9.226;2023-03-31T09:43:49;16.10;77.00
360;DHT22;168;48.872;9.226;2023-03-31T09:46:33;15.80;76.40
360;DHT22;168;48.872;9.226;2023-03-31T09:49:21;15.60;77.10
360;DHT22;168;48.872;9.226;2023-03-31T09:51:57;15.50;77.40
360;DHT22;168;48.872;9.226;2023-03-31T09:54:33;15.50;76.70
360;DHT22;168;48.872;9.226;2023-03-31T09:57:02;15.60;74.50
360;DHT22;168;48.872;9.226;2023-03-31T09:59:38;15.90;73.70
360;DHT22;168;48.872;9.226;2023-03-31T10:05:04;16.10;72.00
360;DHT22;168;48.872;9.226;2023-03-31T10:07:33;16.10;71.40
360;DHT22;168;48.872;9.226;2023-03-31T10:10:03;16.10;70.50
360;DHT22;168;48.872;9.226;2023-03-31T10:12:36;16.10;70.70
360;DHT22;168;48.872;9.226;2023-03-31T10:15:17;16.20;71.40
360;DHT22;168;48.872;9.226;2023-03-31T10:17:45;16.40;70.10
360;DHT22;168;48.872;9.226;2023-03-31T10:20:30;16.60;70.10
360;DHT22;168;48.872;9.226;2023-03-31T10:23:02;16.70;69.60
360;DHT22;168;48.872;9.226;2023-03-31T10:25:32;16.70;69.90
360;DHT22;168;48.872;9.226;2023-03-31T10:28:01;16.70;70.70
360;DHT22;168;48.872;9.226;2023-03-31T10:30:32;16.80;70.00
360;DHT22;168;48.872;9.226;2023-03-31T10:33:11;16.60;69.60
360;DHT22;168;48.872;9.226;2023-03-31T10:35:40;16.50;70.30
360;DHT22;168;48.872;9.226;2023-03-31T10:38:12;16.60;70.10
360;DHT22;168;48.872;9.226;2023-03-31T10:40:50;16.90;69.90
360;DHT22;168;48.872;9.226;2023-03-31T10:43:20;16.90;68.00
360;DHT22;168;48.872;9.226;2023-03-31T10:45:49;16.80;70.30
360;DHT22;168;48.872;9.226;2023-03-31T10:48:18;16.80;74.10
360;DHT22;168;48.872;9.226;2023-03-31T10:50:49;16.80;73.60
360;DHT22;168;48.872;9.226;2023-03-31T10:53:17;16.40;71.10
360;DHT22;168;48.872;9.226;2023-03-31T10:55:57;16.10;72.50
360;DHT22;168;48.872;9.226;2023-03-31T10:58:37;15.80;73.90
360;DHT22;168;48.872;9.226;2023-03-31T11:01:13;15.70;73.60
360;DHT22;168;48.872;9.226;2023-03-31T11:03:59;15.80;73.20
360;DHT22;168;48.872;9.226;2023-03-31T11:06:38;15.80;71.20
360;DHT22;168;48.872;9.226;2023-03-31T11:09:23;16.00;71.30
360;DHT22;168;48.872;9.226;2023-03-31T11:12:01;16.10;70.00
360;DHT22;168;48.872;9.226;2023-03-31T11:14:45;16.10;69.90
360;DHT22;168;48.872;9.226;2023-03-31T11:17:40;16.00;72.90
360;DHT22;168;48.872;9.226;2023-03-31T11:20:17;15.40;85.50
360;DHT22;168;48.872;9.226;2023-03-31T11:22:53;14.40;89.30
360;DHT22;168;48.872;9.226;2023-03-31T11:25:33;13.70;90.60
360;DHT22;168;48.872;9.226;2023-03-31T11:28:30;13.30;94.10
360;DHT22;168;48.872;9.226;2023-03-31T11:31:26;12.10;95.40
360;DHT22;168;48.872;9.226;2023-03-31T11:34:14;10.80;94.40
360;DHT22;168;48.872;9.226;2023-03-31T11:40:11;9.80;90.00
360;DHT22;168;48.872;9.226;2023-03-31T11:42:48;9.70;89.40
360;DHT22;168;48.872;9.226;2023-03-31T11:45:19;9.60;89.00
360;DHT22;168;48.872;9.226;2023-03-31T11:47:51;9.70;87.80
360;DHT22;168;48.872;9.226;2023-03-31T11:50:27;9.90;86.50
360;DHT22;168;48.872;9.226;2023-03-31T11:52:59;10.00;86.70
360;DHT22;168;48.872;9.226;2023-03-31T11:55:29;10.20;89.20
360;DHT22;168;48.872;9.226;2023-03-31T11:58:01;10.40;92.80
360;DHT22;168;48.872;9.226;2023-03-31T12:00:34;10.50;92.30
360;DHT22;168;48.872;9.226;2023-03-31T12:03:08;10.60;93.70
360;DHT22;168;48.872;9.226;2023-03-31T12:05:41;10.70;94.10
360;DHT22;168;48.872;9.226;2023-03-31T12:08:14;10.80;95.30
360;DHT22;168;48.872;9.226;2023-03-31T12:10:46;10.90;95.70
360;DHT22;168;48.872;9.226;2023-03-31T12:13:31;11.00;96.50
360;DHT22;168;48.872;9.226;2023-03-31T12:16:05;11.20;95.80
360;DHT22;168;48.872;9.226;2023-03-31T12:18:37;11.20;95.60
360;DHT22;168;48.872;9.226;2023-03-31T12:21:07;11.30;95.90
360;DHT22;168;48.872;9.226;2023-03-31T12:23:39;11.40;95.80
360;DHT22;168;48.872;9.226;2023-03-31T12:26:19;11.60;96.10
360;DHT22;168;48.872;9.226;2023-03-31T12:28:54;11.90;95.40
360;DHT22;168;48.872;9.226;2023-03-31T12:31:27;12.30;96.10
360;DHT22;168;48.872;9.226;2023-03-31T12:33:59;12.50;94.90
360;DHT22;168;48.872;9.226;2023-03-31T12:36:37;12.70;94.20
360;DHT22;168;48.872;9.226;2023-03-31T12:39:23;12.90;93.30
360;DHT22;168;48.872;9.226;2023-03-31T12:42:07;13.10;92.80
360;DHT22;168;48.872;9.226;2023-03-31T12:44:44;13.40;91.60
360;DHT22;168;48.872;9.226;2023-03-31T12:47:33;13.40;90.70
360;DHT22;168;48.872;9.226;2023-03-31T12:50:24;13.60;88.60
360;DHT22;168;48.872;9.226;2023-03-31T12:53:02;13.70;90.40
360;DHT22;168;48.872;9.226;2023-03-31T12:55:42;13.90;89.70
360;DHT22;168;48.872;9.226;2023-03-31T12:58:41;14.20;87.10
360;DHT22;168;48.872;9.226;2023-03-31T13:01:11;14.30;86.50
360;DHT22;168;48.872;9.226;2023-03-31T13:03:49;14.50;87.10
360;DHT22;168;48.872;9.226;2023-03-31T13:06:54;14.90;83.40
360;DHT22;168;48.872;9.226;2023-03-31T13:09:45;15.10;83.00
360;DHT22;168;48.872;9.226;2023-03-31T13:12:17;15.20;81.40
360;DHT22;168;48.872;9.226;2023-03-31T13:14:47;15.20;80.90
360;DHT22;168;48.872;9.226;2023-03-31T13:17:28;15.10;78.80
360;DHT22;168;48.872;9.226;2023-03-31T13:20:16;14.70;79.20
360;DHT22;168;48.872;9.226;2023-03-31T13:22:45;14.20;80.00
360;DHT22;168;48.872;9.226;2023-03-31T13:28:37;14.00;84.90
360;DHT22;168;48.872;9.226;2023-03-31T13:31:08;13.70;87.50
360;DHT22;168;48.872;9.226;2023-03-31T13:33:41;13.30;86.30
360;DHT22;168;48.872;9.226;2023-03-31T13:39:47;13.30;87.80
360;DHT22;168;48.872;9.226;2023-03-31T13:42:36;13.30;86.00
360;DHT22;168;48.872;9.226;2023-03-31T13:45:21;13.30;86.50
360;DHT22;168;48.872;9.226;2023-03-31T13:48:03;13.50;87.50
360;DHT22;168;48.872;9.226;2023-03-31T13:50:52;13.50;84.70
360;DHT22;168;48.872;9.226;2023-03-31T13:53:35;13.40;85.40
360;DHT22;168;48.872;9.226;2023-03-31T13:56:20;13.40;85.10
360;DHT22;168;48.872;9.226;2023-03-31T13:59:17;13.40;84.10
360;DHT22;168;48.872;9.226;2023-03-31T14:07:49;12.90;84.80
360;DHT22;168;48.872;9.226;2023-03-31T14:10:25;13.00;85.00
360;DHT22;168;48.872;9.226;2023-03-31T14:13:05;13.00;85.20
360;DHT22;168;48.872;9.226;2023-03-31T14:15:34;13.10;83.70
360;DHT22;168;48.872;9.226;2023-03-31T14:18:03;13.20;82.70
360;DHT22;168;48.872;9.226;2023-03-31T14:20:38;13.30;81.70
360;DHT22;168;48.872;9.226;2023-03-31T14:23:22;13.40;81.10
360;DHT22;168;48.872;9.226;2023-03-31T14:26:00;13.60;80.10
360;DHT22;168;48.872;9.226;2023-03-31T14:28:46;13.80;80.50
360;DHT22;168;48.872;9.226;2023-03-31T14:31:22;14.10;80.50
360;DHT22;168;48.872;9.226;2023-03-31T14:34:24;14.30;80.10
360;DHT22;168;48.872;9.226;2023-03-31T14:36:59;14.40;79.10
360;DHT22;168;48.872;9.226;2023-03-31T14:39:30;14.30;79.50
360;DHT22;168;48.872;9.226;2023-03-31T14:42:02;14.30;79.70
360;DHT22;168;48.872;9.226;2023-03-31T14:44:33;14.30;79.90
360;DHT22;168;48.872;9.226;2023-03-31T14:47:02;14.40;80.20
360;DHT22;168;48.872;9.226;2023-03-31T14:49:35;14.50;80.50
360;DHT22;168;48.872;9.226;2023-03-31T14:52:13;14.60;80.10
360;DHT22;168;48.872;9.226;2023-03-31T14:54:44;14.80;80.00
360;DHT22;168;48.872;9.226;2023-03-31T14:57:16;14.90;79.70
360;DHT22;168;48.872;9.226;2023-03-31T14:59:46;15.10;78.80
360;DHT22;168;48.872;9.226;2023-03-31T15:02:16;15.00;77.70
360;DHT22;168;48.872;9.226;2023-03-31T15:04:48;15.00;77.90
360;DHT22;168;48.872;9.226;2023-03-31T15:07:17;15.10;78.60
360;DHT22;168;48.872;9.226;2023-03-31T15:09:48;15.20;78.20
360;DHT22;168;48.872;9.226;2023-03-31T15:12:18;15.30;78.60
360;DHT22;168;48.872;9.226;2023-03-31T15:14:50;15.40;78.20
360;DHT22;168;48.872;9.226;2023-03-31T15:17:20;15.50;77.40
360;DHT22;168;48.872;9.226;2023-03-31T15:19:52;15.40;77.80
360;DHT22;168;48.872;9.226;2023-03-31T15:22:21;15.50;77.40
360;DHT22;168;48.872;9.226;2023-03-31T15:24:49;15.50;78.40
360;DHT22;168;48.872;9.226;2023-03-31T15:27:22;15.60;77.40
360;DHT22;168;48.872;9.226;2023-03-31T15:29:55;15.70;77.40
360;DHT22;168;48.872;9.226;2023-03-31T15:32:25;15.90;76.90
360;DHT22;168;48.872;9.226;2023-03-31T15:34:53;15.90;77.20
360;DHT22;168;48.872;9.226;2023-03-31T15:37:24;16.00;77.20
360;DHT22;168;48.872;9.226;2023-03-31T15:39:55;16.00;76.70
360;DHT22;168;48.872;9.226;2023-03-31T15:42:23;15.80;75.90
360;DHT22;168;48.872;9.226;2023-03-31T15:44:55;15.80;76.90
360;DHT22;168;48.872;9.226;2023-03-31T15:47:26;15.80;77.10
360;DHT22;168;48.872;9.226;2023-03-31T15:49:56;15.70;75.90
360;DHT22;168;48.872;9.226;2023-03-31T15:52:28;15.60;76.30
360;DHT22;168;48.872;9.226;2023-03-31T15:54:58;15.30;77.60
360;DHT22;168;48.872;9.226;2023-03-31T15:57:31;15.20;77.60
360;DHT22;168;48.872;9.226;2023-03-31T16:00:02;15.10;78.70
360;DHT22;168;48.872;9.226;2023-03-31T16:02:38;15.00;79.40
360;DHT22;168;48.872;9.226;2023-03-31T16:05:11;14.90;78.70
360;DHT22;168;48.872;9.226;2023-03-31T16:07:47;14.80;79.70
360;DHT22;168;48.872;9.226;2023-03-31T16:10:17;14.70;80.60
360;DHT22;168;48.872;9.226;2023-03-31T16:12:49;14.70;79.90
360;DHT22;168;48.872;9.226;2023-03-31T16:15:20;14.70;80.70
360;DHT22;168;48.872;9.226;2023-03-31T16:17:50;14.70;80.00
360;DHT22;168;48.872;9.226;2023-03-31T16:20:20;14.50;80.30
360;DHT22;168;48.872;9.226;2023-03-31T16:22:50;14.30;81.30
360;DHT22;168;48.872;9.226;2023-03-31T16:25:20;14.20;81.80
360;DHT22;168;48.872;9.226;2023-03-31T16:27:51;14.10;82.20
360;DHT22;168;48.872;9.226;2023-03-31T16:30:33;14.10;81.50
360;DHT22;168;48.872;9.226;2023-03-31T16:33:02;13.90;81.80
360;DHT22;168;48.872;9.226;2023-03-31T16:35:32;13.70;82.50
360;DHT22;168;48.872;9.226;2023-03-31T16:38:00;13.60;83.30
360;DHT22;168;48.872;9.226;2023-03-31T16:40:28;13.50;83.30
360;DHT22;168;48.872;9.226;2023-03-31T16:43:12;13.40;83.30
360;DHT22;168;48.872;9.226;2023-03-31T16:45:43;13.30;83.80
360;DHT22;168;48.872;9.226;2023-03-31T16:48:12;13.20;83.40
360;DHT22;168;48.872;9.226;2023-03-31T16:50:39;13.00;83.50
360;DHT22;168;48.872;9.226;2023-03-31T16:53:07;13.00;83.30
360;DHT22;168;48.872;9.226;2023-03-31T16:55:35;12.90;84.10
360;DHT22;168;48.872;9.226;2023-03-31T16:58:03;12.90;83.70
360;DHT22;168;48.872;9.226;2023-03-31T17:00:31;12.90;83.60
360;DHT22;168;48.872;9.226;2023-03-31T17:03:01;12.70;82.90
360;DHT22;168;48.872;9.226;2023-03-31T17:05:28;12.70;83.80
360;DHT22;168;48.872;9.226;2023-03-31T17:07:59;12.60;84.40
360;DHT22;168;48.872;9.226;2023-03-31T17:10:26;12.70;84.90
360;DHT22;168;48.872;9.226;2023-03-31T17:12:54;12.90;84.40
360;DHT22;168;48.872;9.226;2023-03-31T17:15:21;12.90;84.80
360;DHT22;168;48.872;9.226;2023-03-31T17:17:48;12.90;85.00
360;DHT22;168;48.872;9.226;2023-03-31T17:20:18;12.80;84.70
360;DHT22;168;48.872;9.226;2023-03-31T17:22:45;12.70;84.80
360;DHT22;168;48.872;9.226;2023-03-31T17:25:13;12.70;85.40
360;DHT22;168;48.872;9.226;2023-03-31T17:27:41;12.70;85.80
360;DHT22;168;48.872;9.226;2023-03-31T17:30:09;12.70;84.00
360;DHT22;168;48.872;9.226;2023-03-31T17:32:36;12.70;83.40
360;DHT22;168;48.872;9.226;2023-03-31T17:35:05;12.60;82.30
360;DHT22;168;48.872;9.226;2023-03-31T17:37:34;12.60;82.40
360;DHT22;168;48.872;9.226;2023-03-31T17:40:02;12.50;82.70
360;DHT22;168;48.872;9.226;2023-03-31T17:42:31;12.40;83.40